Time;durP1;ratioP1;P1;durP2;ratioP2;P2;SDS_P1;SDS_P2;PMS_P1;PMS_P2;Temp;Humidity;BMP_temperature;BMP_pressure;BME280_temperature;BME280_humidity;BME280_pressure;Samples;Min_cycle;Max_cycle;Signal;HPM_P1;HPM_P2
2023/10/20 00:01:45;;;;;;;10.37;7.93;;;;;;;11.93;100.00;64203.16;5050757;28;20616;-54
2023/10/20 00:04:11;;;;;;;11.03;8.37;;;;;;;12.12;100.00;64221.47;5050929;28;20676;-55
2023/10/20 00:06:39;;;;;;;12.03;9.33;;;;;;;12.22;100.00;64232.97;5049633;28;20217;-55
2023/10/20 00:09:06;;;;;;;10.53;8.30;;;;;;;12.19;100.00;64231.66;5050000;28;20239;-54
2023/10/20 00:11:32;;;;;;;12.77;9.03;;;;;;;11.97;100.00;64205.59;5050917;28;20219;-54
2023/10/20 00:13:58;;;;;;;11.03;8.77;;;;;;;12.25;100.00;64235.72;5050923;28;20197;-54
2023/10/20 00:16:28;;;;;;;11.47;8.50;;;;;;;12.22;100.00;64232.44;5050835;28;20573;-54
2023/10/20 00:18:54;;;;;;;9.23;8.07;;;;;;;12.20;100.00;64233.31;5049512;28;20294;-54
2023/10/20 00:21:20;;;;;;;11.50;8.10;;;;;;;11.88;100.00;64198.22;5050987;28;20213;-53
2023/10/20 00:23:45;;;;;;;12.27;8.43;;;;;;;12.03;100.00;64214.69;5050588;28;20258;-54
2023/10/20 00:26:12;;;;;;;13.30;8.40;;;;;;;11.94;100.00;64204.28;5050784;28;20200;-53
2023/10/20 00:28:37;;;;;;;9.70;7.87;;;;;;;12.06;100.00;64222.47;5050698;28;20213;-52
2023/10/20 00:31:04;;;;;;;14.03;8.60;;;;;;;12.09;100.00;64218.19;5050567;28;20205;-51
2023/10/20 00:33:29;;;;;;;9.70;8.20;;;;;;;12.04;100.00;64215.25;5050555;28;20205;-52
2023/10/20 00:35:55;;;;;;;9.97;7.43;;;;;;;12.29;100.00;64243.19;5050578;28;20212;-53
2023/10/20 00:38:21;;;;;;;11.33;7.83;;;;;;;12.24;100.00;64237.16;5050524;28;20327;-54
2023/10/20 00:40:49;;;;;;;9.83;7.90;;;;;;;12.28;100.00;64239.03;5050686;28;20247;-55
2023/10/20 00:43:15;;;;;;;9.93;7.63;;;;;;;12.12;100.00;64224.00;5050452;28;20213;-54
2023/10/20 00:45:44;;;;;;;9.57;8.30;;;;;;;12.33;100.00;64247.56;5050677;28;20232;-54
2023/10/20 00:48:12;;;;;;;9.83;7.37;;;;;;;12.36;100.00;64250.84;5050438;28;20221;-54
2023/10/20 00:50:38;;;;;;;9.63;7.63;;;;;;;12.21;100.00;64234.41;5049228;28;20209;-52
2023/10/20 00:53:05;;;;;;;9.07;7.53;;;;;;;12.13;100.00;64225.66;5050138;28;20213;-53
2023/10/20 00:55:31;;;;;;;11.37;8.80;;;;;;;12.16;100.00;64226.41;5048996;28;20639;-51
2023/10/20 00:57:57;;;;;;;9.07;7.03;;;;;;;12.09;100.00;64218.72;5050161;28;20220;-52
2023/10/20 01:00:22;;;;;;;8.63;6.70;;;;;;;12.22;100.00;64234.97;5050226;28;20263;-53
2023/10/20 01:02:48;;;;;;;8.50;6.20;;;;;;;11.99;100.00;64204.69;5050186;28;20213;-52
2023/10/20 01:05:22;;;;;;;8.73;5.70;;;;;;;11.75;100.00;64184.53;5050319;28;20201;-53
2023/10/20 01:07:48;;;;;;;7.03;6.10;;;;;;;11.98;100.00;64211.72;5050290;28;20228;-54
2023/10/20 01:10:14;;;;;;;10.57;6.23;;;;;;;11.94;100.00;64204.28;5050121;28;20207;-52
2023/10/20 01:12:40;;;;;;;8.07;5.47;;;;;;;12.06;100.00;64219.94;5050086;28;20658;-52
2023/10/20 01:15:06;;;;;;;8.07;5.60;;;;;;;12.03;100.00;64211.59;5050033;28;20262;-53
2023/10/20 01:17:33;;;;;;;7.73;4.57;;;;;;;11.93;100.00;64203.16;5050067;28;20263;-53
2023/10/20 01:20:06;;;;;;;5.67;5.13;;;;;;;11.70;100.00;64176.53;5051566;28;20267;-52
2023/10/20 01:22:32;;;;;;;6.83;5.40;;;;;;;11.92;100.00;64202.09;5053594;28;20209;-53
2023/10/20 01:24:58;;;;;;;5.57;5.00;;;;;;;11.86;100.00;64198.56;5052203;28;20281;-53
2023/10/20 01:27:24;;;;;;;6.43;5.30;;;;;;;11.83;100.00;64190.25;5053259;28;20213;-55
2023/10/20 01:29:50;;;;;;;6.23;5.20;;;;;;;11.62;100.00;64169.72;5053452;28;20205;-54
2023/10/20 01:32:16;;;;;;;6.00;4.80;;;;;;;11.74;100.00;64182.88;5051992;28;20219;-54
2023/10/20 01:34:41;;;;;;;7.93;5.47;;;;;;;11.70;100.00;64176.53;5053307;28;20699;-53
2023/10/20 01:37:11;;;;;;;6.53;5.30;;;;;;;11.72;100.00;64180.69;5053326;28;20304;-53
2023/10/20 01:39:44;;;;;;;5.50;5.00;;;;;;;11.56;100.00;64166.22;5053411;28;20209;-53
2023/10/20 01:42:10;;;;;;;8.13;5.00;;;;;;;11.70;100.00;64176.53;5053059;28;20305;-53
2023/10/20 01:44:37;;;;;;;6.63;5.00;;;;;;;11.61;100.00;64168.63;5053486;28;20209;-52
2023/10/20 01:47:02;;;;;;;6.93;5.53;;;;;;;11.50;100.00;64156.56;5053565;28;20209;-52
2023/10/20 01:49:29;;;;;;;8.73;5.27;;;;;;;11.61;100.00;64166.66;5053284;28;20543;-53
2023/10/20 01:51:54;;;;;;;6.23;5.07;;;;;;;11.49;100.00;64155.47;5053410;28;20216;-52
2023/10/20 01:54:20;;;;;;;8.60;6.00;;;;;;;11.62;100.00;64170.28;5053083;28;20209;-53
2023/10/20 01:56:45;;;;;;;8.07;5.57;;;;;;;11.47;100.00;64151.31;5053307;28;20224;-55
2023/10/20 01:59:11;;;;;;;6.63;5.27;;;;;;;11.25;100.00;64129.19;5053185;28;20232;-54
2023/10/20 02:01:37;;;;;;;7.50;5.50;;;;;;;11.44;100.00;64150.56;5051669;28;20300;-53
2023/10/20 02:04:02;;;;;;;7.93;6.30;;;;;;;11.36;100.00;64139.25;5053045;28;20604;-54
2023/10/20 02:06:28;;;;;;;8.73;6.57;;;;;;;11.14;100.00;64117.69;5052800;28;20231;-54
2023/10/20 02:08:54;;;;;;;10.10;6.97;;;;;;;10.73;100.00;64072.78;5051471;28;20260;-55
2023/10/20 02:11:19;;;;;;;7.13;5.83;;;;;;;10.83;100.00;64084.28;5053233;28;20201;-54
2023/10/20 02:13:45;;;;;;;7.63;5.43;;;;;;;11.20;100.00;64124.25;5052864;28;20229;-59
2023/10/20 02:16:11;;;;;;;8.33;5.60;;;;;;;11.27;100.00;64129.41;5053252;28;20624;-51
2023/10/20 02:18:38;;;;;;;10.23;7.00;;;;;;;11.35;100.00;64140.69;5052690;28;20193;-52
2023/10/20 02:21:07;;;;;;;9.90;6.13;;;;;;;11.27;100.00;64129.41;5051194;28;20212;-51
2023/10/20 02:23:34;;;;;;;9.13;6.17;;;;;;;10.95;100.00;64097.44;5052778;28;20248;-52
2023/10/20 02:26:02;;;;;;;8.23;6.60;;;;;;;11.23;100.00;64125.00;5052617;28;20219;-53
2023/10/20 02:28:28;;;;;;;9.50;6.73;;;;;;;11.21;100.00;64125.34;5052482;28;20209;-50
2023/10/20 02:30:56;;;;;;;7.27;6.30;;;;;;;11.11;100.00;64111.88;5051911;28;20578;-52
2023/10/20 02:33:22;;;;;;;8.97;5.87;;;;;;;11.28;100.00;64132.47;5052588;28;20216;-51
2023/10/20 02:35:48;;;;;;;10.93;6.97;;;;;;;11.26;100.00;64130.84;5052654;28;20566;-52
2023/10/20 02:38:14;;;;;;;8.60;6.40;;;;;;;11.38;100.00;64143.97;5052289;28;20710;-51
2023/10/20 02:40:40;;;;;;;8.70;6.60;;;;;;;11.42;100.00;64148.34;5052403;28;20575;-52
2023/10/20 02:43:06;;;;;;;8.60;6.73;;;;;;;11.32;100.00;64137.41;5052125;28;20723;-53
2023/10/20 02:45:32;;;;;;;8.97;6.70;;;;;;;11.43;100.00;64146.38;5052315;28;20240;-50
2023/10/20 02:47:57;;;;;;;8.10;6.70;;;;;;;11.68;100.00;64173.78;5051900;28;20680;-55
2023/10/20 02:50:27;;;;;;;10.30;7.30;;;;;;;11.53;100.00;64159.88;5052118;28;20217;-51
2023/10/20 02:52:52;;;;;;;9.67;6.57;;;;;;;11.14;100.00;64117.69;5052276;28;20224;-52
2023/10/20 02:55:18;;;;;;;9.60;6.73;;;;;;;11.26;100.00;64130.84;5050898;28;20678;-52
2023/10/20 02:57:43;;;;;;;10.40;7.17;;;;;;;11.15;100.00;64116.25;5052102;28;20292;-52
2023/10/20 03:00:11;;;;;;;9.30;7.67;;;;;;;11.28;100.00;64133.03;5051986;28;20636;-52
2023/10/20 03:02:36;;;;;;;8.83;6.47;;;;;;;11.33;100.00;64138.50;5051957;28;20778;-53
2023/10/20 03:05:02;;;;;;;8.77;6.40;;;;;;;11.25;100.00;64127.19;5051898;28;20237;-52
2023/10/20 03:07:28;;;;;;;8.57;5.90;;;;;;;11.25;100.00;64129.72;5051933;28;20217;-53
2023/10/20 03:09:55;;;;;;;11.93;6.80;;;;;;;11.44;100.00;64150.56;5052331;28;20339;-53
2023/10/20 03:12:20;;;;;;;11.43;6.20;;;;;;;11.33;100.00;64135.97;5052006;28;20220;-54
2023/10/20 03:14:46;;;;;;;10.03;6.80;;;;;;;11.24;100.00;64128.09;5050688;28;20197;-52
2023/10/20 03:17:12;;;;;;;6.93;6.23;;;;;;;11.28;100.00;64127.44;5051488;28;20284;-53
2023/10/20 03:19:40;;;;;;;8.63;6.90;;;;;;;11.39;100.00;64145.06;5051806;28;20330;-53
2023/10/20 03:22:06;;;;;;;10.40;7.13;;;;;;;11.39;100.00;64142.00;5052184;28;20213;-53
2023/10/20 03:24:32;;;;;;;8.23;6.07;;;;;;;11.02;100.00;64102.03;5051695;28;20231;-53
2023/10/20 03:26:58;;;;;;;9.47;7.07;;;;;;;11.14;100.00;64120.22;5049988;28;20282;-52
2023/10/20 03:29:25;;;;;;;8.30;6.23;;;;;;;11.07;100.00;64107.50;5051573;28;20743;-52
2023/10/20 03:31:50;;;;;;;9.47;6.03;;;;;;;11.18;100.00;64121.50;5051416;28;20217;-56
2023/10/20 03:34:16;;;;;;;7.43;6.47;;;;;;;11.12;100.00;64115.50;5051601;28;20201;-53
2023/10/20 03:36:41;;;;;;;11.37;7.17;;;;;;;10.77;100.00;64077.72;5051443;28;20648;-52
2023/10/20 03:39:19;;;;;;;11.07;6.70;;;;;;;10.80;100.00;64081.00;5051417;28;20624;-52
2023/10/20 03:41:47;;;;;;;7.37;6.07;;;;;;;10.69;100.00;64068.41;5051873;28;20209;-53
2023/10/20 03:44:12;;;;;;;12.80;7.60;;;;;;;10.65;100.00;64064.56;5050134;28;20202;-53
2023/10/20 03:46:45;;;;;;;9.20;6.77;;;;;;;10.81;100.00;64081.53;5051634;28;20214;-52
2023/10/20 03:49:12;;;;;;;11.03;6.73;;;;;;;10.99;100.00;64101.81;5051346;28;20240;-57
2023/10/20 03:51:53;;;;;;;9.20;6.70;;;;;;;10.86;100.00;64087.59;5051351;28;20221;-53
2023/10/20 03:54:19;;;;;;;10.37;6.73;;;;;;;10.68;100.00;64065.34;5051604;28;20201;-53
2023/10/20 03:56:45;;;;;;;8.17;6.90;;;;;;;10.68;100.00;64067.31;5049641;28;20232;-54
2023/10/20 03:59:11;;;;;;;14.17;7.00;;;;;;;10.59;100.00;64057.47;5051126;28;20202;-54
2023/10/20 04:01:40;;;;;;;11.13;7.60;;;;;;;10.77;100.00;64077.72;5060765;22;20247;-57
2023/10/20 04:04:09;;;;;;;12.80;8.00;;;;;;;10.44;100.00;64041.06;5070887;28;20262;-54
2023/10/20 04:06:38;;;;;;;8.97;6.90;;;;;;;10.67;100.00;64063.69;5070770;28;20691;-52
2023/10/20 04:09:17;;;;;;;10.70;8.37;;;;;;;12.13;100.00;64225.09;5071049;28;20224;-59
2023/10/20 04:11:43;;;;;;;10.63;7.90;;;;;;;11.42;100.00;64148.34;5070906;28;20273;-56
2023/10/20 04:14:10;;;;;;;10.33;6.30;;;;;;;11.71;100.00;64179.59;5070943;28;20284;-57
2023/10/20 04:16:39;;;;;;;11.03;7.67;;;;;;;10.86;100.00;64085.06;5070736;28;20265;-56
2023/10/20 04:19:09;;;;;;;10.47;7.23;;;;;;;10.49;100.00;64044.53;5070732;28;20212;-56
2023/10/20 04:21:39;;;;;;;10.10;7.03;;;;;;;10.88;100.00;64089.22;5069425;28;20558;-56
2023/10/20 04:24:07;;;;;;;11.00;7.37;;;;;;;10.50;100.00;64047.63;5070627;28;20294;-55
2023/10/20 04:26:35;;;;;;;9.67;7.60;;;;;;;10.57;100.00;64053.31;5070409;28;20220;-55
2023/10/20 04:29:23;;;;;;;11.53;7.60;;;;;;;10.86;100.00;64087.59;5070763;28;20363;-56
2023/10/20 04:52:58;;;;;;;13.70;9.70;;;;;;;10.65;100.00;64062.06;5069033;28;20662;-57
2023/10/20 04:57:53;;;;;;;13.93;9.37;;;;;;;10.46;100.00;64041.28;5073852;28;20243;-56
2023/10/20 05:08:04;;;;;;;11.70;9.10;;;;;;;10.69;100.00;64065.88;5073681;28;20212;-55
2023/10/20 05:10:30;;;;;;;13.47;8.77;;;;;;;11.02;100.00;64104.53;5073816;28;20247;-57
2023/10/20 05:12:56;;;;;;;14.63;9.33;;;;;;;11.11;100.00;64111.88;5073823;28;20745;-57
2023/10/20 05:15:21;;;;;;;13.63;9.17;;;;;;;11.15;100.00;64118.25;5073996;28;20287;-55
2023/10/20 05:17:50;;;;;;;14.67;9.13;;;;;;;10.86;100.00;64087.03;5074354;28;20302;-56
2023/10/20 05:20:20;;;;;;;13.20;9.20;;;;;;;10.87;100.00;64091.19;5073599;28;20232;-55
2023/10/20 05:22:47;;;;;;;12.87;9.77;;;;;;;11.14;100.00;64112.66;5072637;28;20231;-55
2023/10/20 05:25:13;;;;;;;15.77;10.50;;;;;;;11.17;100.00;64118.44;5073640;28;20204;-56
2023/10/20 05:27:39;;;;;;;14.50;9.77;;;;;;;11.33;100.00;64135.44;5073733;28;20209;-56
2023/10/20 05:30:05;;;;;;;18.40;10.40;;;;;;;10.64;100.00;64062.94;5073633;28;20213;-55
2023/10/20 05:32:31;;;;;;;19.40;10.73;;;;;;;10.95;100.00;64094.91;5073055;28;20636;-56
2023/10/20 05:34:58;;;;;;;17.67;11.03;;;;;;;10.66;100.00;64062.63;5073270;28;20289;-55
2023/10/20 05:37:31;;;;;;;19.60;11.47;;;;;;;10.70;100.00;64067.00;5073164;28;20299;-55
2023/10/20 05:40:04;;;;;;;18.10;10.93;;;;;;;10.94;100.00;64093.81;5073297;28;20217;-56
2023/10/20 05:42:31;;;;;;;14.67;11.53;;;;;;;10.72;100.00;64071.69;5070482;28;20228;-55
2023/10/20 05:45:09;;;;;;;19.77;12.87;;;;;;;10.67;100.00;64066.78;5072851;28;20279;-55
2023/10/20 05:47:36;;;;;;;19.63;12.70;;;;;;;11.14;100.00;64117.69;5073175;28;20204;-55
2023/10/20 05:50:02;;;;;;;17.67;13.17;;;;;;;11.21;100.00;64124.81;5071704;28;20207;-56
2023/10/20 05:52:29;;;;;;;17.70;12.53;;;;;;;11.39;100.00;64144.53;5071487;28;20270;-56
2023/10/20 05:54:59;;;;;;;18.47;12.33;;;;;;;11.33;100.00;64135.44;5072932;28;20280;-58
2023/10/20 05:57:26;;;;;;;18.50;11.80;;;;;;;11.35;100.00;64135.09;5072978;28;20207;-56
2023/10/20 05:59:51;;;;;;;22.20;12.97;;;;;;;11.39;100.00;64142.53;5071751;28;20270;-55
2023/10/20 06:02:18;;;;;;;22.33;12.93;;;;;;;11.34;100.00;64139.59;5072865;28;20276;-55
2023/10/20 06:04:43;;;;;;;16.77;12.07;;;;;;;11.25;100.00;64129.19;5071569;28;20207;-55
2023/10/20 06:07:09;;;;;;;23.53;12.87;;;;;;;11.52;100.00;64156.78;5072013;28;20212;-56
2023/10/20 06:09:35;;;;;;;19.10;12.57;;;;;;;11.41;100.00;64146.72;5071488;28;20694;-56
2023/10/20 06:12:01;;;;;;;19.13;11.90;;;;;;;11.54;100.00;64158.97;5072564;28;20406;-55
2023/10/20 06:14:27;;;;;;;21.93;13.87;;;;;;;11.35;100.00;64140.69;5073111;28;20216;-54
2023/10/20 06:16:53;;;;;;;19.20;13.07;;;;;;;11.41;100.00;64147.25;5072828;28;20690;-56
2023/10/20 06:19:19;;;;;;;20.27;13.57;;;;;;;11.56;100.00;64163.16;5072840;28;20197;-54
2023/10/20 06:21:45;;;;;;;17.37;13.40;;;;;;;11.51;100.00;64155.69;5072478;28;20235;-58
2023/10/20 06:24:11;;;;;;;18.50;13.40;;;;;;;11.73;100.00;64182.34;5072717;28;20201;-59
2023/10/20 06:26:38;;;;;;;21.20;12.73;;;;;;;11.66;100.00;64174.13;5072816;28;20201;-53
2023/10/20 06:31:47;;;;;;;17.20;12.30;;;;;;;11.95;100.00;64205.34;5072554;28;20231;-55
2023/10/20 06:34:23;;;;;;;16.30;12.23;;;;;;;12.10;100.00;64221.81;5071398;28;20273;-54
2023/10/20 06:36:49;;;;;;;22.23;13.27;;;;;;;12.02;100.00;64216.09;5071135;28;20217;-55
2023/10/20 06:39:15;;;;;;;21.20;13.27;;;;;;;12.26;100.00;64237.34;5072373;28;20246;-57
2023/10/20 06:41:41;;;;;;;18.50;11.97;;;;;;;12.38;100.00;64253.03;5072190;28;20227;-55
2023/10/20 06:44:06;;;;;;;16.00;12.50;;;;;;;12.48;100.00;64260.94;5072377;28;20310;-55
2023/10/20 06:46:32;;;;;;;18.23;11.90;;;;;;;12.51;100.00;64264.78;5070739;28;20240;-55
2023/10/20 06:48:58;;;;;;;15.83;12.00;;;;;;;12.56;100.00;64269.72;5072171;28;20213;-54
2023/10/20 06:51:28;;;;;;;18.97;11.70;;;;;;;12.88;100.00;64304.28;5072232;28;20262;-55
2023/10/20 06:53:54;;;;;;;18.43;11.80;;;;;;;13.02;100.00;64322.72;5072173;28;20205;-54
2023/10/20 06:56:19;;;;;;;19.67;11.50;;;;;;;13.03;100.00;64326.31;5072056;28;20219;-55
2023/10/20 06:58:45;;;;;;;17.67;12.00;;;;;;;13.01;100.00;64318.53;5072179;28;20216;-55
2023/10/20 07:01:11;;;;;;;17.93;12.40;;;;;;;13.15;100.00;64337.00;5072044;28;20634;-55
2023/10/20 07:03:36;;;;;;;16.73;13.47;;;;;;;13.24;100.00;64344.34;5072159;28;20285;-54
2023/10/20 07:06:06;;;;;;;18.00;12.35;;;;;;;13.27;100.00;64347.63;5071618;28;20207;-55
2023/10/20 07:08:32;;;;;;;16.80;11.80;;;;;;;13.42;100.00;64366.63;5071886;28;20236;-55
2023/10/20 07:11:03;;;;;;;22.02;13.48;;;;;;;13.41;100.00;64363.00;5071754;28;20278;-54
2023/10/20 07:13:31;;;;;;;18.93;14.03;;;;;;;13.52;100.00;64373.97;5070524;28;20304;-54
2023/10/20 07:15:57;;;;;;;18.20;13.07;;;;;;;13.82;100.00;64410.00;5071812;28;20293;-55
2023/10/20 07:18:25;;;;;;;16.60;11.07;;;;;;;13.98;100.00;64424.47;5071516;28;20777;-54
2023/10/20 07:20:52;;;;;;;21.90;13.23;;;;;;;13.95;100.00;64424.28;5071662;28;20200;-54
2023/10/20 07:23:18;;;;;;;18.17;11.75;;;;;;;14.22;100.00;64450.84;5070127;28;20216;-55
2023/10/20 07:25:44;;;;;;;17.20;10.98;;;;;;;14.44;100.00;64474.50;5071554;28;20205;-54
2023/10/20 07:28:09;;;;;;;20.50;12.35;;;;;;;14.55;100.00;64486.56;5071576;28;20216;-55
2023/10/20 07:30:35;;;;;;;15.90;11.70;;;;;;;14.35;100.00;64465.16;5071663;28;20675;-54
2023/10/20 07:33:03;;;;;;;19.13;11.25;;;;;;;14.49;100.00;64480.53;5071752;28;20212;-54
2023/10/20 07:35:30;;;;;;;15.55;10.50;;;;;;;14.60;100.00;64492.63;5070052;28;20204;-55
2023/10/20 07:37:57;;;;;;;19.83;12.32;;;;;;;14.70;100.00;64503.63;5071807;28;20294;-54
2023/10/20 07:40:26;;;;;;;17.55;11.57;;;;;;;14.73;100.00;64506.91;5071709;28;20242;-56
2023/10/20 07:42:53;;;;;;;17.17;8.90;;;;;;;14.79;100.00;64510.97;5054033;28;20351;-55
2023/10/20 07:45:18;;;;;;;17.48;9.07;;;;;;;14.53;100.00;64484.94;5071579;28;20208;-54
2023/10/20 07:47:46;;;;;;;15.68;8.65;;;;;;;14.79;100.00;64510.41;5071053;28;20205;-55
2023/10/20 07:50:12;;;;;;;14.77;8.68;;;;;;;14.66;100.00;64496.13;5070039;28;20201;-54
2023/10/20 07:52:37;;;;;;;10.60;7.68;;;;;;;14.85;100.00;64520.09;5069972;28;20207;-55
2023/10/20 07:55:05;;;;;;;11.80;7.82;;;;;;;14.56;100.00;64485.69;5071238;28;20697;-54
2023/10/20 07:57:31;;;;;;;11.82;7.80;;;;;;;14.85;100.00;64522.63;5071295;28;20299;-54
2023/10/20 07:59:56;;;;;;;10.38;7.20;;;;;;;14.93;100.00;64531.44;5069795;28;20211;-58
2023/10/20 08:02:23;;;;;;;10.13;6.93;;;;;;;14.69;100.00;64501.97;5071304;28;20212;-54
2023/10/20 08:04:50;;;;;;;10.52;7.40;;;;;;;15.11;100.00;64545.59;5071295;28;20196;-55
2023/10/20 08:07:16;;;;;;;15.02;7.28;;;;;;;15.30;100.00;64568.47;5053147;28;20216;-54
2023/10/20 08:09:41;;;;;;;11.60;7.18;;;;;;;15.31;100.00;64569.59;5071132;28;20301;-55
2023/10/20 08:12:07;;;;;;;11.38;5.90;;;;;;;15.56;100.00;64597.09;5070738;28;20212;-54
2023/10/20 08:14:34;;;;;;;11.40;6.30;;;;;;;15.90;100.00;64635.06;5070743;28;20267;-54
2023/10/20 08:17:03;;;;;;;14.93;7.20;;;;;;;15.93;100.00;64640.91;5070201;28;20209;-54
2023/10/20 08:19:32;;;;;;;11.15;6.63;;;;;;;16.12;100.00;64656.16;5069358;28;20201;-54
2023/10/20 08:21:59;;;;;;;7.75;5.65;;;;;;;16.00;100.00;64644.97;5070754;28;20216;-54
2023/10/20 08:24:25;;;;;;;8.40;6.05;;;;;;;16.24;100.00;64669.38;5069431;28;20666;-54
2023/10/20 08:26:52;;;;;;;9.10;6.80;;;;;;;16.98;100.00;64749.78;5070821;28;20254;-54
2023/10/20 08:29:18;;;;;;;13.57;6.30;;;;;;;17.50;98.34;64810.19;5069875;28;20702;-53
2023/10/20 08:31:45;;;;;;;9.57;6.18;;;;;;;17.57;100.00;64817.34;5070818;28;20197;-55
2023/10/20 08:34:10;;;;;;;8.57;6.97;;;;;;;17.07;99.10;64760.22;5070711;28;20215;-57
2023/10/20 08:36:36;;;;;;;12.88;7.22;;;;;;;16.90;95.58;64741.50;5070536;28;20287;-56
2023/10/20 08:39:13;;;;;;;14.00;6.45;;;;;;;16.92;96.94;64746.25;5070802;28;20212;-54
2023/10/20 08:41:42;;;;;;;10.25;6.13;;;;;;;17.16;97.11;64769.59;5069498;28;20701;-59
2023/10/20 08:44:09;;;;;;;10.90;6.40;;;;;;;17.46;97.44;64802.66;5069192;28;20209;-55
2023/10/20 08:46:35;;;;;;;8.98;5.75;;;;;;;17.63;97.91;64823.97;5070452;28;20205;-54
2023/10/20 08:49:02;;;;;;;8.93;6.45;;;;;;;18.01;94.02;64863.31;5070415;28;20228;-59
2023/10/20 08:51:32;;;;;;;14.02;5.63;;;;;;;17.90;90.46;64853.16;5068533;28;20205;-52
2023/10/20 08:54:00;;;;;;;8.93;6.25;;;;;;;17.73;89.62;64832.44;5070988;28;20274;-54
2023/10/20 08:56:27;;;;;;;10.13;6.22;;;;;;;18.12;90.98;64880.00;5070536;28;20204;-53
2023/10/20 08:58:55;;;;;;;14.35;6.50;;;;;;;18.52;82.28;64918.47;5070536;28;20184;-54
2023/10/20 09:01:21;;;;;;;12.48;6.57;;;;;;;18.53;84.00;64917.00;5374878;22;20251;-54
2023/10/20 09:03:52;;;;;;;9.00;6.43;;;;;;;18.93;85.49;64963.69;5070408;28;20201;-56
2023/10/20 09:06:17;;;;;;;10.55;5.82;;;;;;;19.39;82.46;65016.50;5069953;28;20243;-55
2023/10/20 09:08:47;;;;;;;9.27;5.65;;;;;;;19.45;80.07;65023.13;5070202;28;20208;-54
2023/10/20 09:11:13;;;;;;;9.48;5.95;;;;;;;19.41;78.51;65016.16;5069988;28;20207;-53
2023/10/20 09:13:40;;;;;;;11.55;6.55;;;;;;;19.29;79.75;65003.41;5068789;28;20211;-59
2023/10/20 09:16:08;;;;;;;8.88;5.93;;;;;;;20.07;75.98;65089.03;5070296;28;20188;-54
2023/10/20 09:18:53;;;;;;;11.35;6.20;;;;;;;19.92;76.15;65070.44;5070179;28;20753;-54
2023/10/20 09:21:21;;;;;;;11.65;6.35;;;;;;;20.03;72.63;65085.16;5070372;28;20284;-55
2023/10/20 09:23:54;;;;;;;11.18;6.47;;;;;;;19.66;71.18;65044.28;5070148;28;20239;-55
2023/10/20 09:26:21;;;;;;;12.43;5.93;;;;;;;20.22;72.02;65103.03;5070058;28;20485;-54
2023/10/20 09:28:53;;;;;;;12.80;5.85;;;;;;;20.04;71.48;65086.25;5068648;28;20216;-53
2023/10/20 09:31:26;;;;;;;10.07;6.22;;;;;;;21.01;70.84;65189.81;5068507;28;20319;-55
2023/10/20 09:33:52;;;;;;;9.30;6.03;;;;;;;20.88;70.31;65180.56;5068356;28;20209;-55
2023/10/20 09:36:19;;;;;;;9.95;5.70;;;;;;;21.24;68.07;65215.25;5069522;28;20250;-54
2023/10/20 09:38:53;;;;;;;13.85;5.90;;;;;;;20.99;69.42;65189.63;5069872;28;20201;-53
2023/10/20 09:41:29;;;;;;;11.15;5.60;;;;;;;21.60;65.46;65257.66;5071691;28;20678;-55
2023/10/20 09:43:54;;;;;;;13.18;5.75;;;;;;;21.43;68.69;65238.84;5073305;28;20192;-55
2023/10/20 09:46:43;;;;;;;6.20;4.25;;;;;;;21.80;61.83;65278.66;5071723;28;20216;-56
2023/10/20 09:49:19;;;;;;;9.15;5.15;;;;;;;22.26;62.48;65327.03;5071750;28;20295;-55
2023/10/20 09:51:46;;;;;;;8.85;3.70;;;;;;;22.62;61.35;65366.34;5073215;28;20346;-54
2023/10/20 09:54:22;;;;;;;10.85;4.68;;;;;;;23.04;60.99;65415.97;5072786;28;20199;-54
2023/10/20 09:56:49;;;;;;;11.65;4.43;;;;;;;23.41;57.95;65455.88;5055189;28;20303;-52
2023/10/20 09:59:20;;;;;;;12.32;5.10;;;;;;;23.60;54.98;65480.06;5071679;28;20339;-52
2023/10/20 10:01:46;;;;;;;9.43;4.93;;;;;;;23.51;55.94;65467.53;5071590;28;20839;-54
2023/10/20 10:04:13;;;;;;;12.23;4.93;;;;;;;23.38;58.00;65453.09;5072866;28;20201;-53
2023/10/20 10:06:38;;;;;;;8.43;4.05;;;;;;;23.88;57.97;65507.97;5072855;28;20295;-54
2023/10/20 10:09:05;;;;;;;6.38;3.92;;;;;;;24.03;53.47;65522.03;5072814;28;20322;-54
2023/10/20 10:11:42;;;;;;;16.33;4.43;;;;;;;24.16;54.60;65539.03;5072594;28;20285;-53
2023/10/20 10:14:19;;;;;;;8.00;4.72;;;;;;;24.13;53.51;65536.25;5072720;28;20201;-55
2023/10/20 10:17:01;;;;;;;9.57;4.55;;;;;;;24.03;51.82;65525.19;5072289;28;20656;-52
2023/10/20 10:19:29;;;;;;;10.05;4.82;;;;;;;23.58;55.36;65474.72;5072344;28;20212;-52
2023/10/20 10:22:00;;;;;;;13.05;4.10;;;;;;;23.77;54.80;65493.19;5072496;28;20200;-53
2023/10/20 10:24:28;;;;;;;10.38;4.55;;;;;;;24.20;54.71;65542.91;5072182;28;20216;-58
2023/10/20 10:27:00;;;;;;;6.85;3.95;;;;;;;24.25;53.29;65546.44;5072640;28;20382;-52
2023/10/20 10:29:53;;;;;;;13.80;4.50;;;;;;;24.54;53.05;65578.03;5072492;28;20217;-54
2023/10/20 10:32:25;;;;;;;13.38;3.88;;;;;;;24.67;50.84;65595.59;5072429;28;20220;-54
2023/10/20 10:34:52;;;;;;;11.48;4.38;;;;;;;24.36;49.62;65556.03;5072853;28;20267;-53
2023/10/20 10:37:37;;;;;;;9.88;3.80;;;;;;;24.03;50.33;65524.63;5072469;28;20244;-54
2023/10/20 10:40:09;;;;;;;12.70;4.90;;;;;;;23.85;49.75;65502.06;5071099;28;20208;-59
2023/10/20 10:42:49;;;;;;;11.88;3.83;;;;;;;22.90;53.76;65397.91;5072388;28;20216;-58
2023/10/20 10:45:24;;;;;;;9.10;4.35;;;;;;;23.59;53.96;65476.38;5072570;28;20330;-53
2023/10/20 10:47:51;;;;;;;17.25;4.03;;;;;;;24.00;53.71;65519.25;5072068;28;20216;-55
2023/10/20 10:50:20;;;;;;;14.13;4.47;;;;;;;23.76;51.17;65495.22;5072360;28;20201;-57
2023/10/20 10:52:45;;;;;;;10.55;3.55;;;;;;;24.10;50.74;65532.38;5071312;28;20771;-54
2023/10/20 10:55:13;;;;;;;12.38;4.43;;;;;;;24.58;51.23;65583.03;5072246;28;20186;-54
2023/10/20 10:57:40;;;;;;;11.63;3.75;;;;;;;24.91;50.51;65619.66;5070651;28;20243;-53
2023/10/20 11:00:08;;;;;;;9.13;3.72;;;;;;;24.42;49.58;65567.31;5072263;28;20199;-53
2023/10/20 11:02:34;;;;;;;11.68;4.13;;;;;;;24.73;48.61;65596.53;5070821;28;20220;-52
2023/10/20 11:05:01;;;;;;;8.57;4.00;;;;;;;25.25;49.71;65658.84;5072383;28;20197;-53
2023/10/20 11:07:27;;;;;;;12.95;4.68;;;;;;;25.37;47.84;65667.00;5072111;28;20275;-52
2023/10/20 11:09:53;;;;;;;10.43;3.53;;;;;;;25.15;47.03;65645.19;5071886;28;20289;-53
2023/10/20 11:12:22;;;;;;;7.40;3.83;;;;;;;25.50;46.91;65687.19;5071933;28;20329;-54
2023/10/20 11:14:48;;;;;;;14.32;3.45;;;;;;;25.81;45.47;65718.47;5071928;28;20204;-53
2023/10/20 11:17:14;;;;;;;12.18;3.83;;;;;;;26.01;44.21;65743.25;5072031;28;20208;-52
2023/10/20 11:19:41;;;;;;;12.10;3.33;;;;;;;25.69;44.71;65705.69;5071823;28;20217;-53
2023/10/20 11:22:15;;;;;;;10.25;3.45;;;;;;;26.12;44.03;65755.47;5088911;22;20280;-52
2023/10/20 11:24:41;;;;;;;8.00;3.75;;;;;;;25.69;44.24;65707.72;5091862;28;20203;-52
2023/10/20 11:27:08;;;;;;;10.68;3.47;;;;;;;25.54;43.96;65689.03;5091905;28;20211;-55
2023/10/20 11:29:35;;;;;;;10.75;4.07;;;;;;;25.65;43.38;65701.25;5091747;28;20255;-54
2023/10/20 11:32:07;;;;;;;8.43;3.60;;;;;;;25.62;44.29;65699.94;5092072;28;20208;-52
2023/10/20 11:34:37;;;;;;;9.82;3.63;;;;;;;25.63;43.51;65701.06;5091781;28;20674;-51
2023/10/20 11:37:04;;;;;;;13.48;4.13;;;;;;;25.63;43.39;65701.06;5091692;28;20215;-53
2023/10/20 11:39:36;;;;;;;14.82;4.05;;;;;;;25.65;42.55;65703.28;5091676;28;20208;-53
2023/10/20 11:42:02;;;;;;;9.15;3.38;;;;;;;25.78;42.46;65715.13;5091691;28;20681;-54
2023/10/20 11:44:28;;;;;;;9.88;3.90;;;;;;;25.72;42.26;65711.03;5073528;28;20184;-55
2023/10/20 11:46:54;;;;;;;8.98;3.60;;;;;;;25.76;42.30;65715.47;5091521;28;20293;-57
2023/10/20 11:49:21;;;;;;;10.52;4.18;;;;;;;25.87;42.71;65727.72;5091709;28;20216;-52
2023/10/20 11:51:48;;;;;;;11.02;3.97;;;;;;;25.70;42.94;65706.81;5091470;28;20216;-53
2023/10/20 11:54:14;;;;;;;9.52;3.28;;;;;;;26.08;41.42;65751.03;5091346;28;20196;-53
2023/10/20 11:56:40;;;;;;;8.05;3.78;;;;;;;26.01;42.36;65738.09;5091528;28;20708;-53
2023/10/20 11:59:07;;;;;;;19.85;4.30;;;;;;;25.59;43.08;65694.03;5091208;28;20746;-54